Latest Weather Observations for Laverton

IDV60901

Issued at 1:01 pm EST Sunday 24 May 2015 (issued every 10 minutes, with the page automatically refreshed every 10 minutes)

About weather observations | Map of Melbourne area stations | Latest observations for Melbourne area | Other Formats
Station Details ID: 087031 Name: LAVERTON RAAF Lat: -37.86 Lon: 144.76 Height: 20.1 m
Data from the previous 72 hours. | See also: Recent months at Laverton
Date/Time
EST
Tmp

°C
App
Tmp
°C
Dew
Point
°C
Rel
Hum
%
Delta-T

°C
Wind Press
QNH
hPa
Press
MSL
hPa
Rain
since
9 am
mm
Dir
 
Spd
km/h
Gust
km/h
Spd
kts
Gust
kts
24/01:00pm 13.1 10.7 5.3 59 3.6 SE 7 9 4 5 1030.0 1030.0 0.0
24/12:30pm 12.1 9.8 5.0 62 3.3 SE 6 9 3 5 1030.6 1030.6 0.0
24/12:00pm 10.9 8.6 5.0 67 2.7 NE 6 7 3 4 1030.9 1030.9 0.0
24/11:30am 10.7 8.6 5.9 72 2.2 NNW 6 9 3 5 1031.6 1031.6 0.0
24/11:00am 8.9 6.1 5.3 78 1.6 N 9 13 5 7 1031.9 1031.9 0.0
24/10:30am 8.2 4.8 6.0 86 1.0 N 13 17 7 9 1032.2 1032.2 0.0
24/10:00am 8.0 4.7 6.3 89 0.8 N 13 17 7 9 1032.3 1032.3 0.0
24/09:30am 7.2 4.6 6.0 92 0.5 N 9 15 5 8 1032.3 1032.3 0.0
24/09:22am 6.7 4.0 5.7 93 0.4 N 9 13 5 7 1032.1 1032.1 0.0
24/09:00am 6.8 4.2 5.9 94 0.4 NNW 9 13 5 7 1032.4 1032.4 0.0
24/08:56am 6.6 3.9 5.7 94 0.4 NNW 9 13 5 7 1032.3 1032.3 0.0
24/08:30am 5.6 2.7 4.6 93 0.4 NW 9 11 5 6 1032.1 1032.1 0.0
24/08:00am 5.5 2.2 4.3 92 0.5 NW 11 13 6 7 1031.8 1031.8 0.0
24/07:32am 6.0 2.7 4.5 90 0.6 NW 11 17 6 9 1031.6 1031.6 0.0
24/07:30am 6.1 2.8 4.6 90 0.6 NW 11 13 6 7 1031.5 1031.5 0.0
24/07:10am 6.4 3.9 4.7 89 0.7 NNE 7 9 4 5 1031.2 1031.2 0.0
24/07:07am 6.4 3.9 4.7 89 0.7 NNE 7 9 4 5 1031.2 1031.2 0.0
24/07:00am 6.3 3.4 4.5 88 0.8 NNE 9 11 5 6 1031.1 1031.1 0.0
24/06:30am 7.0 4.6 5.2 88 0.8 NNE 7 9 4 5 1031.0 1031.0 0.0
24/06:00am 7.1 4.3 5.3 88 0.8 NE 9 11 5 6 1030.9 1030.9 0.0
24/05:30am 7.0 4.8 5.2 88 0.8 NNE 6 9 3 5 1030.7 1030.7 0.0
24/05:00am 7.2 5.0 5.2 87 0.9 E 6 7 3 4 1030.5 1030.5 0.0
24/04:30am 7.6 6.2 5.4 86 1.0 E 2 6 1 3 1030.5 1030.5 0.0
24/04:00am 7.7 5.4 5.7 87 0.9 NE 7 11 4 6 1030.6 1030.6 0.0
24/03:30am 7.6 5.3 5.9 89 0.8 NNE 7 11 4 6 1030.6 1030.6 0.0
24/03:00am 7.5 5.3 6.1 91 0.6 NNE 7 9 4 5 1030.6 1030.6 0.0
24/02:36am 7.4 4.8 6.2 92 0.5 N 9 11 5 6 1030.7 1030.7 0.0
24/02:30am 7.5 5.0 6.4 93 0.5 NNE 9 13 5 7 1030.7 1030.7 0.0
24/02:00am 7.2 4.7 6.5 95 0.3 NNW 9 13 5 7 1030.9 1030.9 0.0
24/01:30am 6.3 4.0 5.7 96 0.3 NNW 7 9 4 5 1031.0 1031.0 0.0
24/01:00am 5.6 3.1 5.0 96 0.3 NNW 7 9 4 5 1031.4 1031.4 0.0
24/12:30am 4.6 2.1 3.9 95 0.3 NNW 6 7 3 4 1031.7 1031.7 0.0
24/12:00am 4.0 1.2 3.3 95 0.3 NNW 7 9 4 5 1031.6 1031.6 0.0
 
Date/Time
EST
Tmp

°C
App
Tmp
°C
Dew
Point
°C
Rel
Hum
%
Delta-T

°C
Wind Press
QNH
hPa
Press
MSL
hPa
Rain
since
9 am
mm
Dir
 
Spd
km/h
Gust
km/h
Spd
kts
Gust
kts
23/11:30pm 3.1 -0.6 2.2 94 0.4 NNW 11 15 6 8 1031.7 1031.7 0.0
23/11:00pm 3.5 -0.2 2.5 93 0.4 NNW 11 15 6 8 1031.8 1031.8 0.0
23/10:30pm 4.4 1.2 3.2 92 0.5 SSW 9 11 5 6 1032.0 1032.0 0.0
23/10:00pm 5.2 3.9 4.0 92 0.5 CALM 0 0 0 0 1032.0 1032.0 0.0
23/09:30pm 5.6 3.6 4.2 91 0.6 SSW 4 6 2 3 1032.2 1032.2 0.0
23/09:00pm 5.8 3.4 4.3 90 0.6 SSW 6 9 3 5 1032.3 1032.3 0.0
23/08:30pm 6.3 3.9 4.5 88 0.8 SSW 6 7 3 4 1032.3 1032.3 0.0
23/08:00pm 7.0 4.7 5.0 87 0.9 SSW 6 7 3 4 1032.2 1032.2 0.0
23/07:30pm 7.9 5.7 5.4 84 1.1 SSW 6 7 3 4 1032.0 1032.0 0.0
23/07:00pm 8.7 6.5 5.4 80 1.5 S 6 7 3 4 1031.9 1031.9 0.0
23/06:30pm 9.1 6.9 5.5 78 1.6 SSE 6 6 3 3 1031.8 1031.8 0.0
23/06:00pm 9.7 7.6 5.9 77 1.7 SSE 6 9 3 5 1031.7 1031.7 0.0
23/05:30pm 9.9 7.3 5.9 76 1.8 S 9 13 5 7 1031.7 1031.7 0.0
23/05:00pm 10.6 7.6 6.0 73 2.1 SSE 11 15 6 8 1031.6 1031.6 0.0
23/04:30pm 11.1 8.5 6.3 72 2.3 SSE 9 17 5 9 1031.7 1031.7 0.0
23/04:00pm 11.5 8.2 6.2 70 2.5 ESE 13 19 7 10 1031.7 1031.7 0.0
23/03:30pm 11.5 8.1 6.0 69 2.6 SSE 13 19 7 10 1032.0 1032.0 0.0
23/03:00pm 11.8 8.5 6.3 69 2.6 S 13 22 7 12 1031.8 1031.8 0.0
23/02:30pm 12.2 9.4 6.9 70 2.5 SE 11 19 6 10 1031.7 1031.7 0.0
23/02:00pm 12.4 9.5 6.5 67 2.8 SE 11 19 6 10 1031.8 1031.8 0.0
23/01:30pm 12.8 9.5 6.6 66 3.0 SSE 13 20 7 11 1032.0 1032.0 0.0
23/01:00pm 12.8 9.5 6.6 66 2.9 SSE 13 20 7 11 1032.1 1032.1 0.0
23/12:30pm 12.6 9.3 6.4 66 2.9 S 13 20 7 11 1032.3 1032.3 0.0
23/12:00pm 13.0 9.7 6.6 65 3.0 SSE 13 19 7 10 1032.8 1032.8 0.0
23/11:30am 12.9 10.0 6.3 64 3.1 SSW 11 17 6 9 1033.2 1033.2 0.0
23/11:00am 12.6 9.6 6.2 65 3.0 SSE 11 19 6 10 1033.4 1033.4 0.0
23/10:30am 11.9 8.5 6.0 67 2.8 SE 13 20 7 11 1033.7 1033.7 0.0
23/10:00am 11.2 8.0 5.3 67 2.7 S 11 17 6 9 1033.6 1033.6 0.0
23/09:30am 11.3 7.8 5.6 68 2.6 SSW 13 17 7 9 1033.7 1033.7 0.0
23/09:00am 10.9 8.3 5.9 71 2.3 SW 9 13 5 7 1033.5 1033.5 0.0
23/08:30am 10.5 7.9 6.1 74 2.0 SW 9 13 5 7 1033.4 1033.4 0.0
23/08:00am 10.3 7.6 5.5 72 2.2 WSW 9 13 5 7 1033.1 1033.1 0.0
23/07:30am 10.2 7.5 5.6 73 2.1 WSW 9 15 5 8 1032.8 1032.8 0.0
23/07:00am 10.1 7.9 5.3 72 2.2 WSW 6 9 3 5 1032.7 1032.7 0.0
23/06:30am 10.1 7.8 5.5 73 2.1 WSW 7 11 4 6 1032.5 1032.5 0.0
23/06:00am 10.0 7.8 6.0 76 1.8 SW 7 9 4 5 1032.3 1032.3 0.0
23/05:30am 10.1 7.4 5.7 74 2.0 SW 9 11 5 6 1032.2 1032.2 0.0
23/05:00am 10.2 7.5 5.8 74 2.0 SW 9 11 5 6 1032.0 1032.0 0.0
23/04:30am 10.3 8.0 5.5 72 2.2 SW 7 11 4 6 1031.8 1031.8 0.0
23/04:00am 10.3 7.6 5.7 73 2.1 SW 9 13 5 7 1031.6 1031.6 0.0
23/03:30am 10.5 7.8 5.5 71 2.3 SSW 9 13 5 7 1031.7 1031.7 0.0
23/03:00am 10.7 7.6 5.5 70 2.4 SW 11 17 6 9 1031.9 1031.9 0.0
23/02:30am 10.8 7.4 5.8 71 2.3 SSW 13 17 7 9 1032.0 1032.0 0.0
23/02:00am 10.9 8.0 6.5 74 2.0 SW 11 17 6 9 1032.1 1032.1 0.0
23/01:30am 11.0 8.1 6.6 74 2.1 SSW 11 13 6 7 1032.0 1032.0 0.0
23/01:00am 11.0 9.1 6.7 75 2.0 SSW 6 7 3 4 1032.0 1032.0 0.0
23/12:30am 11.0 9.1 6.6 74 2.1 S 6 7 3 4 1032.2 1032.2 0.0
23/12:00am 11.1 8.6 6.5 73 2.1 SW 9 13 5 7 1032.5 1032.5 0.0
 
Date/Time
EST
Tmp

°C
App
Tmp
°C
Dew
Point
°C
Rel
Hum
%
Delta-T

°C
Wind Press
QNH
hPa
Press
MSL
hPa
Rain
since
9 am
mm
Dir
 
Spd
km/h
Gust
km/h
Spd
kts
Gust
kts
22/11:30pm 11.1 8.5 6.3 72 2.3 SW 9 13 5 7 1032.4 1032.4 0.0
22/11:00pm 11.3 7.9 6.0 70 2.4 SSW 13 17 7 9 1032.3 1032.3 0.0
22/10:30pm 11.3 7.8 5.6 68 2.6 SSW 13 17 7 9 1032.4 1032.4 0.0
22/10:00pm 11.5 6.9 5.4 66 2.8 S 19 24 10 13 1032.4 1032.4 0.0
22/09:30pm 11.4 8.0 6.1 70 2.5 SSW 13 17 7 9 1032.1 1032.1 0.0
22/09:00pm 11.3 7.5 6.0 70 2.4 SSW 15 20 8 11 1032.1 1032.1 0.0
22/08:30pm 11.6 7.8 5.7 67 2.7 S 15 22 8 12 1032.0 1032.0 0.0
22/08:00pm 11.6 7.7 5.5 66 2.8 S 15 20 8 11 1032.0 1032.0 0.0
22/07:30pm 11.5 7.4 6.0 69 2.6 S 17 22 9 12 1031.8 1031.8 0.0
22/07:00pm 11.5 8.1 5.8 68 2.6 S 13 17 7 9 1031.6 1031.6 0.0
22/06:30pm 11.7 7.1 5.6 66 2.8 S 19 24 10 13 1031.3 1031.3 0.0
22/06:00pm 11.9 7.2 6.0 67 2.7 S 20 28 11 15 1030.9 1030.9 0.0
22/05:30pm 12.1 8.6 7.0 71 2.4 S 15 22 8 12 1030.7 1030.7 0.0
22/05:00pm 12.1 8.4 6.2 67 2.8 SSE 15 20 8 11 1030.7 1030.7 0.0
22/04:30pm 12.3 8.5 5.9 65 3.0 SSE 15 24 8 13 1030.6 1030.6 0.0
22/04:00pm 12.3 7.8 6.1 66 2.9 SSE 19 28 10 15 1030.6 1030.6 0.0
22/03:30pm 12.4 7.8 6.7 68 2.7 S 20 30 11 16 1030.5 1030.5 0.0
22/03:00pm 12.5 7.2 6.8 68 2.7 S 24 32 13 17 1030.2 1030.2 0.0
22/02:30pm 12.8 7.5 7.0 68 2.8 SSE 24 33 13 18 1029.8 1029.8 0.0
22/02:00pm 13.1 7.9 7.3 68 2.8 S 24 33 13 18 1029.6 1029.6 0.0
22/01:30pm 13.2 8.9 7.9 70 2.6 SSE 20 30 11 16 1029.6 1029.6 0.0
22/01:00pm 13.2 9.7 8.7 74 2.2 SSE 17 28 9 15 1029.7 1029.7 0.0
22/12:30pm 13.1 9.6 8.6 74 2.3 SSE 17 22 9 12 1029.8 1029.8 0.0
22/12:00pm 13.3 9.1 8.4 72 2.4 SSE 20 28 11 15 1029.9 1029.9 0.0
22/11:30am 13.7 9.7 8.3 70 2.7 SE 19 28 10 15 1030.0 1030.0 0.0
22/11:00am 13.1 9.0 7.8 70 2.6 SE 19 30 10 16 1030.3 1030.3 0.0
22/10:30am 13.3 9.8 7.3 67 2.9 SSE 15 20 8 11 1030.1 1030.1 0.0
22/10:00am 13.1 10.1 7.8 70 2.6 SSE 13 20 7 11 1030.0 1030.0 0.0
22/09:30am 13.0 11.2 9.3 78 1.9 SSE 9 15 5 8 1029.9 1029.9 0.0
22/09:00am 12.3 10.5 9.5 83 1.4 S 9 15 5 8 1029.7 1029.7 1.8
22/08:30am 11.8 10.4 9.0 83 1.4 SW 6 9 3 5 1029.7 1029.7 1.8
22/08:00am 11.4 9.8 8.6 83 1.4 ESE 7 11 4 6 1029.3 1029.3 1.8
22/07:30am 11.1 8.6 8.3 83 1.4 ESE 11 13 6 7 1028.9 1028.9 1.8
22/07:00am 11.2 8.3 8.2 82 1.5 E 13 20 7 11 1028.5 1028.5 1.8
22/06:30am 11.6 9.2 8.5 81 1.5 ESE 11 15 6 8 1028.3 1028.3 1.8
22/06:00am 11.6 8.9 8.8 83 1.4 ESE 13 19 7 10 1028.0 1028.0 1.8
22/05:30am 11.4 9.6 9.5 88 1.0 ESE 9 13 5 7 1027.7 1027.7 1.8
22/05:00am 10.9 9.4 9.2 89 0.8 SE 7 11 4 6 1027.5 1027.5 1.8
22/04:30am 10.5 8.9 8.8 89 0.8 SE 7 11 4 6 1027.4 1027.4 1.8
22/04:00am 10.8 8.9 9.1 89 0.8 SE 9 13 5 7 1027.1 1027.1 1.8
22/03:30am 11.3 8.7 9.4 88 1.0 ESE 13 19 7 10 1027.0 1027.0 1.8
22/03:00am 11.9 9.6 10.3 90 0.8 ESE 13 19 7 10 1026.9 1026.9 1.8
22/02:30am 12.0 9.4 10.7 92 0.7 SE 15 24 8 13 1027.0 1027.0 1.8
22/02:00am 11.9 10.1 10.8 93 0.6 SE 11 17 6 9 1026.9 1026.9 1.8
22/01:30am 12.1 10.0 11.3 95 0.4 SE 13 20 7 11 1026.7 1026.7 1.8
22/01:00am 11.8 10.5 11.2 96 0.3 SSE 9 13 5 7 1026.6 1026.6 1.8
22/12:30am 11.6 10.3 11.1 97 0.3 SSE 9 11 5 6 1026.6 1026.6 1.8
22/12:14am 11.6 10.3 11.1 97 0.3 SSE 9 15 5 8 1026.6 1026.6 1.8
22/12:00am 11.8 10.2 11.5 98 0.2 SE 11 17 6 9 1026.5 1026.5 1.8
 
Date/Time
EST
Tmp

°C
App
Tmp
°C
Dew
Point
°C
Rel
Hum
%
Delta-T

°C
Wind Press
QNH
hPa
Press
MSL
hPa
Rain
since
9 am
mm
Dir
 
Spd
km/h
Gust
km/h
Spd
kts
Gust
kts
21/11:31pm 11.3 10.3 11.0 98 0.2 SSE 7 9 4 5 1026.5 1026.5 1.8
21/11:30pm 11.3 10.3 11.0 98 0.2 SSE 7 9 4 5 1026.5 1026.5 1.8
21/11:00pm 11.1 10.2 10.8 98 0.2 SSE 6 9 3 5 1026.4 1026.4 1.8
21/10:30pm 11.3 10.3 11.1 99 0.1 SSE 7 9 4 5 1026.4 1026.4 1.8
21/10:24pm 11.3 10.3 11.1 99 0.1 S 7 9 4 5 1026.4 1026.4 1.8
21/10:00pm 11.1 10.1 10.9 99 0.1 ESE 7 9 4 5 1026.3 1026.3 1.8
21/09:30pm 10.7 9.7 10.4 98 0.2 ENE 6 6 3 3 1026.0 1026.0 1.8
21/09:00pm 10.9 9.8 10.6 98 0.2 NE 7 11 4 6 1025.7 1025.7 1.8
21/08:30pm 10.7 8.8 10.4 98 0.2 NNE 11 13 6 7 1024.9 1024.9 1.8
21/08:09pm 10.8 8.9 10.5 98 0.2 NNE 11 15 6 8 1024.9 1024.9 1.8
21/08:00pm 10.7 9.2 10.4 98 0.2 NNE 9 13 5 7 1024.8 1024.8 1.8
21/07:30pm 10.8 8.5 10.3 97 0.3 NW 13 17 7 9 1024.6 1024.6 1.6
21/07:00pm 10.9 8.2 10.3 96 0.3 WNW 15 20 8 11 1024.4 1024.4 1.4
21/06:30pm 11.0 8.3 10.2 95 0.4 W 15 22 8 12 1024.4 1024.4 1.2
21/06:08pm 11.0 8.6 10.1 94 0.5 WSW 13 19 7 10 1024.4 1024.4 0.6
21/06:00pm 11.0 8.6 10.1 94 0.5 WSW 13 17 7 9 1024.3 1024.3 0.4
21/05:30pm 10.9 7.9 9.3 90 0.8 SW 15 20 8 11 1024.2 1024.2 0.2
21/05:12pm 11.2 6.8 8.8 85 1.2 SSW 22 30 12 16 1024.2 1024.2 0.2
21/05:00pm 12.3 8.4 8.6 78 1.8 SSW 19 24 10 13 1024.0 1024.0 0.2
21/04:30pm 12.8 9.2 8.3 74 2.2 SSW 17 22 9 12 1023.9 1023.9 0.2
21/04:00pm 12.8 9.1 7.9 72 2.4 SSW 17 24 9 13 1023.7 1023.7 0.2
21/03:30pm 12.8 8.8 8.3 74 2.2 SW 19 24 10 13 1023.6 1023.6 0.2
21/03:00pm 12.8 9.0 8.9 77 1.9 SSW 19 28 10 15 1023.4 1023.4 0.2
21/02:30pm 12.8 9.5 9.6 81 1.6 SW 17 26 9 14 1023.3 1023.3 0.2
21/02:00pm 12.8 9.1 9.6 81 1.6 SSW 19 24 10 13 1023.3 1023.3 0.2
21/01:30pm 11.9 9.9 10.1 89 0.9 SSW 11 15 6 8 1023.5 1023.5 0.2
21/01:12pm 11.5 8.0 8.9 84 1.3 SSW 17 22 9 12 1023.6 1023.6 0.2

Latest Capital City Observations: Canberra | Sydney | Melbourne | Brisbane | Adelaide | Perth | Hobart | Darwin

Other Formats:

Comma delimited format used in spreadsheet applications
http://www.bom.gov.au/fwo/IDV60901/IDV60901.94865.axf

JavaScript Object Notation format (JSON) in row-major order
http://www.bom.gov.au/fwo/IDV60901/IDV60901.94865.json